Aérodrome :
LOGIN :

S'inscrire | Disclaimer

   EN    FR    IT 

 










Légende :    VFR   VFR Marginal   IFR   IFR Intensif   IFR Très Intensif
Visi : 
Plafond : 
>= 8 km
>= 3000ft
5 à 8 km
1000 à 3000 ft
1500m à 5 km
500 à 1000 ft
800 à 1500m
200 à 500 ft
< 800m
< 200 ft
Symboles :   Orages  Brouillard  Fortes neiges  Fortes précipitations  Vent > 20 kt
SIGMETs :   Divers  Orages  Givrage  Turbulence  Onde Orograph.  Cendres Volcan.







- Altitude de l'aérodrome : 392 ft
- Code IATA : CDG
- Voir les cartes d'approche


LFPG - Paris-Aeroport Charles De Gaulle

DERNIER METAR :
  • 212330Z 25015KT 6000 -DZRA BKN006 BKN012 11/10 Q1011 TEMPO 26015G25KT 3000 -DZRA

METARs EXPIRÉS :
  • 212300Z 25015KT 5000 -RADZ BKN006 BKN012 11/10 Q1011 TEMPO 26015G25KT 3000 -DZRA
  • 212230Z 24014KT 5000 -RADZ BR BKN005 BKN012 11/10 Q1010 TEMPO 26015G25KT 3000 -DZRA
  • 212200Z 25014KT 5000 -DZ BR FEW003 BKN005 BKN011 10/10 Q1011 TEMPO 26015G25KT 3000 -DZRA
  • 212130Z 24013KT 4500 -DZRA FEW003 BKN005 BKN011 10/10 Q1011 TEMPO 3000 -RADZ BECMG 25015G25KT
  • 212100Z 24012KT 4500 -DZRA BR BKN004 BKN011 10/10 Q1011 TEMPO 3000 -RADZ BECMG 25015G25KT

TAF AMD TAF LFPG
Valide du 22 à 00h jusqu'au 23 à 06h UTC


212330Z 2200/2306 26015KT 6000 BKN007
TEMPO 2200/2205 26015G25KT 2500 -DZRA BKN004
PROB40
TEMPO 2203/2205 1500 -DZRA BKN002
BECMG 2205/2207 4000 -RA
PROB40
TEMPO 2206/2213 2000 RA
BECMG 2209/2211 25015G25KT 9999 NSW SCT007 BKN020
PROB30
TEMPO 2210/2213 VRB20G35KT 1500 RA SCT015TCU
BECMG 2211/2213 33010G20KT
BECMG 2220/2222 25005KT TX12/2212Z TN06/2306Z
ATIS : +33 1 48 62 10 92
Pas de NOTAMs connus pour ce terrain.



MET'MAP, la Météo Aéronautique d'un coup d'oeil ! - Copyright ORBIFLY Décembre 2007 - Disclaimer

ORBIFLY MET'MAP TEAM :

Programmation & Développement : Alexandra Zaïnal
Conception & Développement : Baudouin d'Aumeries
Co-Programmation & Développement : Marc-Olivier Méhu
Soutien technique & logistique : Manuel Goepfert

Contact : metmap@orbifly.com




SOURCES & CREDITS :

   NOAA